sensor_id;sensor_type;location;lat;lon;timestamp;pressure;altitude;pressure_sealevel;temperature;humidity
51528;BME280;37612;51.768;21.590;2023-02-28T00:03:48;101465.73;;;-5.33;76.22
51528;BME280;37612;51.768;21.590;2023-02-28T00:07:50;101465.02;;;-5.35;76.74
51528;BME280;37612;51.768;21.590;2023-02-28T00:11:52;101469.52;;;-5.37;77.57
51528;BME280;37612;51.768;21.590;2023-02-28T00:16:02;101468.88;;;-5.36;77.94
51528;BME280;37612;51.768;21.590;2023-02-28T00:20:05;101468.95;;;-5.32;77.77
51528;BME280;37612;51.768;21.590;2023-02-28T00:24:29;101464.94;;;-5.27;77.95
51528;BME280;37612;51.768;21.590;2023-02-28T00:28:31;101463.34;;;-5.27;78.15
51528;BME280;37612;51.768;21.590;2023-02-28T00:32:33;101463.80;;;-5.28;78.43
51528;BME280;37612;51.768;21.590;2023-02-28T00:36:36;101464.63;;;-5.32;78.21
51528;BME280;37612;51.768;21.590;2023-02-28T00:40:38;101466.24;;;-5.38;78.11
51528;BME280;37612;51.768;21.590;2023-02-28T00:44:39;101466.59;;;-5.45;77.76
51528;BME280;37612;51.768;21.590;2023-02-28T00:48:40;101469.81;;;-5.44;77.74
51528;BME280;37612;51.768;21.590;2023-02-28T00:52:41;101464.85;;;-5.42;77.56
51528;BME280;37612;51.768;21.590;2023-02-28T00:56:42;101461.87;;;-5.44;78.16
51528;BME280;37612;51.768;21.590;2023-02-28T01:00:43;101463.83;;;-5.50;78.26
51528;BME280;37612;51.768;21.590;2023-02-28T01:04:49;101461.98;;;-5.56;78.39
51528;BME280;37612;51.768;21.590;2023-02-28T01:08:50;101464.11;;;-5.61;78.35
51528;BME280;37612;51.768;21.590;2023-02-28T01:12:51;101469.30;;;-5.68;78.49
51528;BME280;37612;51.768;21.590;2023-02-28T01:16:53;101469.11;;;-5.76;78.46
51528;BME280;37612;51.768;21.590;2023-02-28T01:20:54;101472.50;;;-5.84;78.11
51528;BME280;37612;51.768;21.590;2023-02-28T01:24:55;101473.91;;;-5.89;78.49
51528;BME280;37612;51.768;21.590;2023-02-28T01:28:57;101470.17;;;-5.86;78.73
51528;BME280;37612;51.768;21.590;2023-02-28T01:32:58;101473.20;;;-5.82;78.81
51528;BME280;37612;51.768;21.590;2023-02-28T01:37:00;101474.39;;;-5.81;79.23
51528;BME280;37612;51.768;21.590;2023-02-28T01:41:02;101472.29;;;-5.81;79.43
51528;BME280;37612;51.768;21.590;2023-02-28T01:45:18;101471.10;;;-5.84;79.24
51528;BME280;37612;51.768;21.590;2023-02-28T01:49:20;101469.48;;;-5.88;79.41
51528;BME280;37612;51.768;21.590;2023-02-28T01:53:30;101471.79;;;-5.94;79.40
51528;BME280;37612;51.768;21.590;2023-02-28T01:57:40;101474.41;;;-6.02;79.55
51528;BME280;37612;51.768;21.590;2023-02-28T02:01:43;101472.50;;;-6.04;79.73
51528;BME280;37612;51.768;21.590;2023-02-28T02:05:45;101476.55;;;-6.02;79.42
51528;BME280;37612;51.768;21.590;2023-02-28T02:09:49;101477.33;;;-6.01;79.64
51528;BME280;37612;51.768;21.590;2023-02-28T02:18:41;101473.63;;;-6.05;80.13
51528;BME280;37612;51.768;21.590;2023-02-28T02:27:09;101483.09;;;-6.14;80.78
51528;BME280;37612;51.768;21.590;2023-02-28T02:35:34;101485.05;;;-6.10;80.77
51528;BME280;37612;51.768;21.590;2023-02-28T02:43:51;101478.82;;;-6.12;80.95
51528;BME280;37612;51.768;21.590;2023-02-28T02:47:56;101483.43;;;-6.16;81.28
51528;BME280;37612;51.768;21.590;2023-02-28T02:52:03;101486.18;;;-6.21;81.14
51528;BME280;37612;51.768;21.590;2023-02-28T02:56:06;101489.23;;;-6.20;81.12
51528;BME280;37612;51.768;21.590;2023-02-28T03:00:11;101492.30;;;-6.20;81.27
51528;BME280;37612;51.768;21.590;2023-02-28T03:04:16;101491.95;;;-6.22;81.42
51528;BME280;37612;51.768;21.590;2023-02-28T03:08:19;101492.65;;;-6.27;81.50
51528;BME280;37612;51.768;21.590;2023-02-28T03:12:24;101497.28;;;-6.34;81.75
51528;BME280;37612;51.768;21.590;2023-02-28T03:16:35;101496.31;;;-6.40;81.94
51528;BME280;37612;51.768;21.590;2023-02-28T03:20:54;101500.37;;;-6.44;80.95
51528;BME280;37612;51.768;21.590;2023-02-28T03:25:09;101500.43;;;-6.45;81.36
51528;BME280;37612;51.768;21.590;2023-02-28T03:29:23;101507.18;;;-6.43;81.06
51528;BME280;37612;51.768;21.590;2023-02-28T03:33:36;101510.07;;;-6.49;81.04
51528;BME280;37612;51.768;21.590;2023-02-28T03:37:42;101512.70;;;-6.52;82.10
51528;BME280;37612;51.768;21.590;2023-02-28T03:41:52;101516.32;;;-6.57;82.28
51528;BME280;37612;51.768;21.590;2023-02-28T03:45:56;101513.73;;;-6.63;82.46
51528;BME280;37612;51.768;21.590;2023-02-28T03:50:16;101515.23;;;-6.62;82.28
51528;BME280;37612;51.768;21.590;2023-02-28T03:54:27;101515.65;;;-6.60;81.40
51528;BME280;37612;51.768;21.590;2023-02-28T03:58:46;101519.27;;;-6.65;81.43
51528;BME280;37612;51.768;21.590;2023-02-28T04:02:48;101520.88;;;-6.68;82.21
51528;BME280;37612;51.768;21.590;2023-02-28T04:07:01;101521.92;;;-6.71;82.41
51528;BME280;37612;51.768;21.590;2023-02-28T04:15:33;101519.81;;;-6.78;82.45
51528;BME280;37612;51.768;21.590;2023-02-28T04:19:35;101521.90;;;-6.78;82.30
51528;BME280;37612;51.768;21.590;2023-02-28T04:23:36;101527.88;;;-6.80;82.15
51528;BME280;37612;51.768;21.590;2023-02-28T04:27:37;101525.89;;;-6.81;82.89
51528;BME280;37612;51.768;21.590;2023-02-28T04:31:39;101529.21;;;-6.85;82.67
51528;BME280;37612;51.768;21.590;2023-02-28T04:35:40;101531.34;;;-6.91;82.80
51528;BME280;37612;51.768;21.590;2023-02-28T04:39:42;101530.24;;;-6.90;83.27
51528;BME280;37612;51.768;21.590;2023-02-28T04:43:44;101532.38;;;-6.86;83.20
51528;BME280;37612;51.768;21.590;2023-02-28T04:47:45;101533.66;;;-6.84;83.50
51528;BME280;37612;51.768;21.590;2023-02-28T04:51:46;101535.41;;;-6.90;82.59
51528;BME280;37612;51.768;21.590;2023-02-28T04:55:47;101539.48;;;-6.97;83.48
51528;BME280;37612;51.768;21.590;2023-02-28T04:59:49;101537.14;;;-7.03;83.78
51528;BME280;37612;51.768;21.590;2023-02-28T05:03:53;101542.79;;;-7.07;84.14
51528;BME280;37612;51.768;21.590;2023-02-28T05:07:54;101543.83;;;-7.05;84.10
51528;BME280;37612;51.768;21.590;2023-02-28T05:11:56;101541.23;;;-7.02;83.69
51528;BME280;37612;51.768;21.590;2023-02-28T05:15:57;101548.48;;;-7.04;83.80
51528;BME280;37612;51.768;21.590;2023-02-28T05:19:59;101552.91;;;-7.03;84.29
51528;BME280;37612;51.768;21.590;2023-02-28T05:24:03;101550.53;;;-7.07;84.32
51528;BME280;37612;51.768;21.590;2023-02-28T05:28:06;101553.45;;;-7.09;83.95
51528;BME280;37612;51.768;21.590;2023-02-28T05:32:09;101555.35;;;-7.06;83.92
51528;BME280;37612;51.768;21.590;2023-02-28T05:36:11;101550.75;;;-7.02;84.71
51528;BME280;37612;51.768;21.590;2023-02-28T05:40:13;101553.94;;;-6.98;84.91
51528;BME280;37612;51.768;21.590;2023-02-28T05:44:15;101553.91;;;-6.95;85.07
51528;BME280;37612;51.768;21.590;2023-02-28T05:48:21;101556.12;;;-6.91;85.09
51528;BME280;37612;51.768;21.590;2023-02-28T05:52:22;101562.77;;;-6.84;84.94
51528;BME280;37612;51.768;21.590;2023-02-28T05:56:24;101558.98;;;-6.74;85.10
51528;BME280;37612;51.768;21.590;2023-02-28T06:00:25;101565.04;;;-6.61;85.42
51528;BME280;37612;51.768;21.590;2023-02-28T06:04:26;101567.80;;;-6.52;85.61
51528;BME280;37612;51.768;21.590;2023-02-28T06:08:28;101572.52;;;-6.48;85.53
51528;BME280;37612;51.768;21.590;2023-02-28T06:12:30;101571.89;;;-6.44;85.57
51528;BME280;37612;51.768;21.590;2023-02-28T06:16:32;101574.51;;;-6.33;85.90
51528;BME280;37612;51.768;21.590;2023-02-28T06:20:34;101576.23;;;-6.21;85.74
51528;BME280;37612;51.768;21.590;2023-02-28T06:24:37;101574.13;;;-6.07;86.24
51528;BME280;37612;51.768;21.590;2023-02-28T06:28:39;101577.17;;;-5.96;86.17
51528;BME280;37612;51.768;21.590;2023-02-28T06:32:40;101580.30;;;-5.86;86.38
51528;BME280;37612;51.768;21.590;2023-02-28T06:36:42;101582.36;;;-5.73;86.28
51528;BME280;37612;51.768;21.590;2023-02-28T06:40:44;101581.03;;;-5.59;85.83
51528;BME280;37612;51.768;21.590;2023-02-28T06:44:45;101577.84;;;-5.48;85.93
51528;BME280;37612;51.768;21.590;2023-02-28T06:48:46;101582.08;;;-5.37;85.90
51528;BME280;37612;51.768;21.590;2023-02-28T06:52:48;101580.14;;;-5.24;86.16
51528;BME280;37612;51.768;21.590;2023-02-28T06:56:49;101583.79;;;-5.07;86.09
51528;BME280;37612;51.768;21.590;2023-02-28T07:00:52;101582.23;;;-4.88;85.95
51528;BME280;37612;51.768;21.590;2023-02-28T07:04:53;101576.13;;;-4.71;85.94
51528;BME280;37612;51.768;21.590;2023-02-28T07:08:54;101576.09;;;-4.56;86.15
51528;BME280;37612;51.768;21.590;2023-02-28T07:12:55;101575.02;;;-4.42;86.24
51528;BME280;37612;51.768;21.590;2023-02-28T07:16:57;101574.59;;;-4.27;86.00
51528;BME280;37612;51.768;21.590;2023-02-28T07:21:02;101575.10;;;-4.08;85.61
51528;BME280;37612;51.768;21.590;2023-02-28T07:25:04;101581.98;;;-3.87;85.13
51528;BME280;37612;51.768;21.590;2023-02-28T07:29:06;101578.20;;;-3.72;84.31
51528;BME280;37612;51.768;21.590;2023-02-28T07:33:08;101577.81;;;-3.57;83.99
51528;BME280;37612;51.768;21.590;2023-02-28T07:37:09;101576.89;;;-3.43;83.57
51528;BME280;37612;51.768;21.590;2023-02-28T07:41:10;101571.86;;;-3.30;83.05
51528;BME280;37612;51.768;21.590;2023-02-28T07:45:12;101575.92;;;-3.18;82.68
51528;BME280;37612;51.768;21.590;2023-02-28T07:49:13;101573.45;;;-3.04;82.22
51528;BME280;37612;51.768;21.590;2023-02-28T07:53:15;101571.56;;;-2.85;81.68
51528;BME280;37612;51.768;21.590;2023-02-28T07:57:19;101569.96;;;-2.68;81.29
51528;BME280;37612;51.768;21.590;2023-02-28T08:01:20;101572.18;;;-2.52;81.13
51528;BME280;37612;51.768;21.590;2023-02-28T08:05:21;101570.94;;;-2.37;80.44
51528;BME280;37612;51.768;21.590;2023-02-28T08:09:23;101568.35;;;-2.25;80.25
51528;BME280;37612;51.768;21.590;2023-02-28T08:13:24;101570.43;;;-2.13;79.91
51528;BME280;37612;51.768;21.590;2023-02-28T08:17:26;101574.70;;;-1.97;79.78
51528;BME280;37612;51.768;21.590;2023-02-28T08:21:27;101568.48;;;-1.85;79.54
51528;BME280;37612;51.768;21.590;2023-02-28T08:25:28;101570.31;;;-1.72;79.14
51528;BME280;37612;51.768;21.590;2023-02-28T08:29:29;101567.45;;;-1.57;78.75
51528;BME280;37612;51.768;21.590;2023-02-28T08:33:31;101566.66;;;-1.44;78.86
51528;BME280;37612;51.768;21.590;2023-02-28T08:37:32;101570.70;;;-1.32;78.40
51528;BME280;37612;51.768;21.590;2023-02-28T08:41:33;101568.80;;;-1.24;78.64
51528;BME280;37612;51.768;21.590;2023-02-28T08:45:34;101568.73;;;-1.20;77.99
51528;BME280;37612;51.768;21.590;2023-02-28T08:49:36;101567.02;;;-1.16;77.68
51528;BME280;37612;51.768;21.590;2023-02-28T08:53:39;101567.55;;;-1.04;77.37
51528;BME280;37612;51.768;21.590;2023-02-28T08:57:41;101569.48;;;-0.95;77.22
51528;BME280;37612;51.768;21.590;2023-02-28T09:01:42;101573.61;;;-0.85;77.13
51528;BME280;37612;51.768;21.590;2023-02-28T09:05:58;101569.25;;;-0.78;76.98
51528;BME280;37612;51.768;21.590;2023-02-28T09:10:00;101568.40;;;-0.65;76.77
51528;BME280;37612;51.768;21.590;2023-02-28T09:14:02;101565.48;;;-0.50;77.28
51528;BME280;37612;51.768;21.590;2023-02-28T09:18:04;101567.50;;;-0.39;77.03
51528;BME280;37612;51.768;21.590;2023-02-28T09:22:05;101572.09;;;-0.26;76.97
51528;BME280;37612;51.768;21.590;2023-02-28T09:26:07;101563.08;;;-0.12;76.26
51528;BME280;37612;51.768;21.590;2023-02-28T09:30:09;101566.81;;;-0.06;76.21
51528;BME280;37612;51.768;21.590;2023-02-28T09:34:10;101569.11;;;-0.04;75.88
51528;BME280;37612;51.768;21.590;2023-02-28T09:38:12;101568.27;;;-0.06;76.34
51528;BME280;37612;51.768;21.590;2023-02-28T09:42:27;101567.33;;;-0.07;75.38
51528;BME280;37612;51.768;21.590;2023-02-28T09:46:39;101567.86;;;0.04;75.46
51528;BME280;37612;51.768;21.590;2023-02-28T09:50:46;101569.39;;;0.14;75.15
51528;BME280;37612;51.768;21.590;2023-02-28T09:54:49;101569.38;;;0.20;74.89
51528;BME280;37612;51.768;21.590;2023-02-28T09:59:02;101569.79;;;0.27;74.62
51528;BME280;37612;51.768;21.590;2023-02-28T10:07:45;101564.94;;;0.56;74.43
51528;BME280;37612;51.768;21.590;2023-02-28T10:11:55;101562.81;;;0.65;73.83
51528;BME280;37612;51.768;21.590;2023-02-28T10:20:24;101563.92;;;0.86;73.65
51528;BME280;37612;51.768;21.590;2023-02-28T10:24:47;101563.49;;;0.93;72.73
51528;BME280;37612;51.768;21.590;2023-02-28T10:28:51;101566.02;;;0.98;72.85
51528;BME280;37612;51.768;21.590;2023-02-28T10:32:54;101565.55;;;1.10;73.11
51528;BME280;37612;51.768;21.590;2023-02-28T10:36:55;101560.66;;;1.18;72.68
51528;BME280;37612;51.768;21.590;2023-02-28T10:41:12;101560.44;;;1.27;72.94
51528;BME280;37612;51.768;21.590;2023-02-28T10:45:17;101559.90;;;1.33;72.08
51528;BME280;37612;51.768;21.590;2023-02-28T10:49:26;101554.42;;;1.31;71.31
51528;BME280;37612;51.768;21.590;2023-02-28T10:57:44;101560.95;;;1.13;70.45
51528;BME280;37612;51.768;21.590;2023-02-28T11:01:46;101566.13;;;1.05;70.30
51528;BME280;37612;51.768;21.590;2023-02-28T11:05:51;101567.08;;;1.03;70.32
51528;BME280;37612;51.768;21.590;2023-02-28T11:09:54;101558.22;;;0.82;68.89
51528;BME280;37612;51.768;21.590;2023-02-28T11:14:04;101551.60;;;0.74;69.81
51528;BME280;37612;51.768;21.590;2023-02-28T11:22:23;101547.30;;;0.88;68.40
51528;BME280;37612;51.768;21.590;2023-02-28T11:26:44;101540.79;;;0.96;68.00
51528;BME280;37612;51.768;21.590;2023-02-28T11:35:24;101518.98;;;1.10;68.11
51528;BME280;37612;51.768;21.590;2023-02-28T11:39:27;101515.18;;;1.19;68.29
51528;BME280;37612;51.768;21.590;2023-02-28T11:52:34;101504.95;;;1.21;66.82
51528;BME280;37612;51.768;21.590;2023-02-28T11:56:55;101502.15;;;1.25;66.53
51528;BME280;37612;51.768;21.590;2023-02-28T12:01:32;101493.75;;;1.23;66.48
51528;BME280;37612;51.768;21.590;2023-02-28T12:05:49;101491.56;;;1.25;66.15
51528;BME280;37612;51.768;21.590;2023-02-28T12:14:44;101473.58;;;1.35;66.31
51528;BME280;37612;51.768;21.590;2023-02-28T12:27:03;101457.91;;;1.51;65.76
51528;BME280;37612;51.768;21.590;2023-02-28T12:31:28;101452.42;;;1.50;65.96
51528;BME280;37612;51.768;21.590;2023-02-28T12:36:01;101445.89;;;1.59;65.98
51528;BME280;37612;51.768;21.590;2023-02-28T12:40:14;101447.55;;;1.70;65.96
51528;BME280;37612;51.768;21.590;2023-02-28T12:44:32;101452.05;;;1.68;64.49
51528;BME280;37612;51.768;21.590;2023-02-28T12:48:48;101445.09;;;1.55;64.74
51528;BME280;37612;51.768;21.590;2023-02-28T13:10:05;101426.52;;;1.82;64.07
51528;BME280;37612;51.768;21.590;2023-02-28T13:14:29;101421.95;;;1.75;64.37
51528;BME280;37612;51.768;21.590;2023-02-28T13:18:34;101421.70;;;1.72;63.60
51528;BME280;37612;51.768;21.590;2023-02-28T13:22:43;101421.66;;;1.66;64.03
51528;BME280;37612;51.768;21.590;2023-02-28T13:31:08;101417.81;;;1.73;63.63
51528;BME280;37612;51.768;21.590;2023-02-28T13:52:21;101390.64;;;1.76;63.99
51528;BME280;37612;51.768;21.590;2023-02-28T13:56:40;101382.90;;;1.73;63.70
51528;BME280;37612;51.768;21.590;2023-02-28T14:00:57;101381.13;;;1.73;63.95
51528;BME280;37612;51.768;21.590;2023-02-28T14:05:13;101378.88;;;1.77;63.81
51528;BME280;37612;51.768;21.590;2023-02-28T14:09:32;101377.78;;;1.75;63.61
51528;BME280;37612;51.768;21.590;2023-02-28T14:13:43;101373.36;;;1.72;63.66
51528;BME280;37612;51.768;21.590;2023-02-28T14:17:45;101375.53;;;1.68;63.67
51528;BME280;37612;51.768;21.590;2023-02-28T14:26:44;101363.79;;;1.64;63.48
51528;BME280;37612;51.768;21.590;2023-02-28T14:39:27;101358.58;;;1.53;63.29
51528;BME280;37612;51.768;21.590;2023-02-28T14:43:31;101356.52;;;1.51;62.95
51528;BME280;37612;51.768;21.590;2023-02-28T14:47:34;101347.66;;;1.49;63.13
51528;BME280;37612;51.768;21.590;2023-02-28T14:51:36;101345.63;;;1.45;63.23
51528;BME280;37612;51.768;21.590;2023-02-28T14:55:44;101346.70;;;1.41;63.84
51528;BME280;37612;51.768;21.590;2023-02-28T14:59:46;101341.15;;;1.37;63.69
51528;BME280;37612;51.768;21.590;2023-02-28T15:03:48;101343.59;;;1.31;63.82
51528;BME280;37612;51.768;21.590;2023-02-28T15:08:10;101341.70;;;1.26;64.04
51528;BME280;37612;51.768;21.590;2023-02-28T15:12:15;101337.45;;;1.20;63.60
51528;BME280;37612;51.768;21.590;2023-02-28T15:16:31;101336.16;;;1.13;63.69
51528;BME280;37612;51.768;21.590;2023-02-28T15:20:35;101334.61;;;1.06;63.93
51528;BME280;37612;51.768;21.590;2023-02-28T15:24:43;101331.97;;;0.99;63.99
51528;BME280;37612;51.768;21.590;2023-02-28T15:28:46;101333.46;;;0.91;63.79
51528;BME280;37612;51.768;21.590;2023-02-28T15:41:37;101336.29;;;0.68;64.16
51528;BME280;37612;51.768;21.590;2023-02-28T15:45:45;101339.82;;;0.61;64.17
51528;BME280;37612;51.768;21.590;2023-02-28T15:49:54;101339.83;;;0.54;64.13
51528;BME280;37612;51.768;21.590;2023-02-28T15:54:00;101343.48;;;0.45;64.35
51528;BME280;37612;51.768;21.590;2023-02-28T15:58:03;101344.96;;;0.34;64.53
51528;BME280;37612;51.768;21.590;2023-02-28T16:06:40;101341.48;;;0.07;64.85
51528;BME280;37612;51.768;21.590;2023-02-28T16:10:46;101344.76;;;-0.09;65.04
51528;BME280;37612;51.768;21.590;2023-02-28T16:14:51;101351.57;;;-0.25;65.31
51528;BME280;37612;51.768;21.590;2023-02-28T16:18:54;101354.20;;;-0.50;65.35
51528;BME280;37612;51.768;21.590;2023-02-28T16:22:55;101355.41;;;-0.70;65.64
51528;BME280;37612;51.768;21.590;2023-02-28T16:26:57;101357.64;;;-0.88;65.81
51528;BME280;37612;51.768;21.590;2023-02-28T16:31:00;101361.13;;;-1.05;66.11
51528;BME280;37612;51.768;21.590;2023-02-28T16:35:05;101363.33;;;-1.24;66.20
51528;BME280;37612;51.768;21.590;2023-02-28T16:39:10;101361.31;;;-1.42;66.60
51528;BME280;37612;51.768;21.590;2023-02-28T16:43:23;101368.75;;;-1.57;66.79
51528;BME280;37612;51.768;21.590;2023-02-28T16:47:25;101366.38;;;-1.71;67.28
51528;BME280;37612;51.768;21.590;2023-02-28T16:51:27;101370.94;;;-1.85;67.45
51528;BME280;37612;51.768;21.590;2023-02-28T16:55:28;101369.35;;;-1.97;67.87
51528;BME280;37612;51.768;21.590;2023-02-28T16:59:30;101366.92;;;-2.07;68.16
51528;BME280;37612;51.768;21.590;2023-02-28T17:03:31;101367.43;;;-2.14;68.29
51528;BME280;37612;51.768;21.590;2023-02-28T17:07:33;101369.56;;;-2.17;68.45
51528;BME280;37612;51.768;21.590;2023-02-28T17:11:34;101374.13;;;-2.21;68.47
51528;BME280;37612;51.768;21.590;2023-02-28T17:15:36;101374.75;;;-2.26;68.87
51528;BME280;37612;51.768;21.590;2023-02-28T17:19:38;101375.41;;;-2.32;69.14
51528;BME280;37612;51.768;21.590;2023-02-28T17:23:43;101374.39;;;-2.41;69.24
51528;BME280;37612;51.768;21.590;2023-02-28T17:27:46;101369.66;;;-2.50;69.47
51528;BME280;37612;51.768;21.590;2023-02-28T17:31:47;101376.08;;;-2.60;70.08
51528;BME280;37612;51.768;21.590;2023-02-28T17:35:49;101369.73;;;-2.72;70.55
51528;BME280;37612;51.768;21.590;2023-02-28T17:39:50;101370.42;;;-2.82;71.27
51528;BME280;37612;51.768;21.590;2023-02-28T17:43:52;101372.23;;;-2.91;71.58
51528;BME280;37612;51.768;21.590;2023-02-28T17:47:53;101384.60;;;-2.97;71.79
51528;BME280;37612;51.768;21.590;2023-02-28T17:51:54;101388.83;;;-2.98;71.56
51528;BME280;37612;51.768;21.590;2023-02-28T17:55:55;101387.62;;;-2.96;71.35
51528;BME280;37612;51.768;21.590;2023-02-28T17:59:56;101396.11;;;-2.96;71.75
51528;BME280;37612;51.768;21.590;2023-02-28T18:03:57;101397.80;;;-2.99;72.13
51528;BME280;37612;51.768;21.590;2023-02-28T18:08:00;101394.54;;;-3.04;71.98
51528;BME280;37612;51.768;21.590;2023-02-28T18:12:01;101391.27;;;-3.10;71.94
51528;BME280;37612;51.768;21.590;2023-02-28T18:16:02;101386.14;;;-3.18;72.20
51528;BME280;37612;51.768;21.590;2023-02-28T18:20:04;101383.36;;;-3.25;72.71
51528;BME280;37612;51.768;21.590;2023-02-28T18:24:07;101387.19;;;-3.31;73.21
51528;BME280;37612;51.768;21.590;2023-02-28T18:28:08;101378.45;;;-3.39;73.60
51528;BME280;37612;51.768;21.590;2023-02-28T18:32:10;101363.80;;;-3.43;73.80
51528;BME280;37612;51.768;21.590;2023-02-28T18:36:11;101362.24;;;-3.41;74.41
51528;BME280;37612;51.768;21.590;2023-02-28T18:40:13;101366.52;;;-3.37;74.63
51528;BME280;37612;51.768;21.590;2023-02-28T18:44:15;101364.27;;;-3.40;74.91
51528;BME280;37612;51.768;21.590;2023-02-28T18:48:18;101367.39;;;-3.42;74.45
51528;BME280;37612;51.768;21.590;2023-02-28T18:52:21;101364.99;;;-3.49;74.70
51528;BME280;37612;51.768;21.590;2023-02-28T18:56:24;101365.27;;;-3.54;74.80
51528;BME280;37612;51.768;21.590;2023-02-28T19:00:26;101360.13;;;-3.57;74.94
51528;BME280;37612;51.768;21.590;2023-02-28T19:04:27;101356.34;;;-3.58;74.93
51528;BME280;37612;51.768;21.590;2023-02-28T19:08:28;101356.83;;;-3.59;75.26
51528;BME280;37612;51.768;21.590;2023-02-28T19:12:33;101355.25;;;-3.64;75.53
51528;BME280;37612;51.768;21.590;2023-02-28T19:16:35;101352.79;;;-3.72;75.11
51528;BME280;37612;51.768;21.590;2023-02-28T19:20:36;101347.25;;;-3.81;76.05
51528;BME280;37612;51.768;21.590;2023-02-28T19:24:38;101342.29;;;-3.86;76.51
51528;BME280;37612;51.768;21.590;2023-02-28T19:28:39;101341.15;;;-3.87;76.49
51528;BME280;37612;51.768;21.590;2023-02-28T19:32:41;101333.83;;;-3.83;76.40
51528;BME280;37612;51.768;21.590;2023-02-28T19:36:43;101333.02;;;-3.79;76.63
51528;BME280;37612;51.768;21.590;2023-02-28T19:40:45;101332.83;;;-3.77;76.75
51528;BME280;37612;51.768;21.590;2023-02-28T19:44:46;101336.02;;;-3.76;76.82
51528;BME280;37612;51.768;21.590;2023-02-28T19:48:48;101339.64;;;-3.77;76.86
51528;BME280;37612;51.768;21.590;2023-02-28T19:52:50;101357.81;;;-3.78;76.89
51528;BME280;37612;51.768;21.590;2023-02-28T19:56:53;101357.80;;;-3.82;77.01
51528;BME280;37612;51.768;21.590;2023-02-28T20:01:07;101362.59;;;-3.88;77.19
51528;BME280;37612;51.768;21.590;2023-02-28T20:05:09;101363.14;;;-3.91;77.21
51528;BME280;37612;51.768;21.590;2023-02-28T20:09:10;101365.65;;;-3.89;77.00
51528;BME280;37612;51.768;21.590;2023-02-28T20:13:11;101370.20;;;-3.90;77.28
51528;BME280;37612;51.768;21.590;2023-02-28T20:17:12;101370.45;;;-3.95;77.54
51528;BME280;37612;51.768;21.590;2023-02-28T20:21:14;101372.22;;;-4.00;77.48
51528;BME280;37612;51.768;21.590;2023-02-28T20:25:17;101374.31;;;-4.06;78.10
51528;BME280;37612;51.768;21.590;2023-02-28T20:29:18;101367.04;;;-4.13;78.07
51528;BME280;37612;51.768;21.590;2023-02-28T20:33:19;101368.50;;;-4.17;78.43
51528;BME280;37612;51.768;21.590;2023-02-28T20:37:20;101366.84;;;-4.15;78.35
51528;BME280;37612;51.768;21.590;2023-02-28T20:41:22;101361.44;;;-4.15;78.50
51528;BME280;37612;51.768;21.590;2023-02-28T20:45:24;101355.89;;;-4.22;78.63
51528;BME280;37612;51.768;21.590;2023-02-28T20:49:26;101359.11;;;-4.32;78.79
51528;BME280;37612;51.768;21.590;2023-02-28T20:53:27;101357.80;;;-4.42;78.90
51528;BME280;37612;51.768;21.590;2023-02-28T20:57:29;101353.94;;;-4.48;79.22
51528;BME280;37612;51.768;21.590;2023-02-28T21:01:31;101352.15;;;-4.49;79.28
51528;BME280;37612;51.768;21.590;2023-02-28T21:05:33;101354.44;;;-4.48;79.59
51528;BME280;37612;51.768;21.590;2023-02-28T21:09:35;101351.10;;;-4.47;79.76
51528;BME280;37612;51.768;21.590;2023-02-28T21:13:37;101349.67;;;-4.53;80.12
51528;BME280;37612;51.768;21.590;2023-02-28T21:17:38;101351.86;;;-4.59;80.51
51528;BME280;37612;51.768;21.590;2023-02-28T21:21:42;101346.74;;;-4.65;80.60
51528;BME280;37612;51.768;21.590;2023-02-28T21:25:44;101347.79;;;-4.67;80.28
51528;BME280;37612;51.768;21.590;2023-02-28T21:29:46;101349.20;;;-4.68;80.22
51528;BME280;37612;51.768;21.590;2023-02-28T21:33:47;101349.23;;;-4.68;80.43
51528;BME280;37612;51.768;21.590;2023-02-28T21:37:48;101351.48;;;-4.72;80.61
51528;BME280;37612;51.768;21.590;2023-02-28T21:41:51;101353.59;;;-4.77;80.83
51528;BME280;37612;51.768;21.590;2023-02-28T21:45:59;101354.75;;;-4.83;80.70
51528;BME280;37612;51.768;21.590;2023-02-28T21:50:01;101352.71;;;-4.84;80.57
51528;BME280;37612;51.768;21.590;2023-02-28T21:54:05;101349.48;;;-4.83;80.57
51528;BME280;37612;51.768;21.590;2023-02-28T21:58:06;101349.40;;;-4.84;80.64
51528;BME280;37612;51.768;21.590;2023-02-28T22:02:09;101351.11;;;-4.88;80.74
51528;BME280;37612;51.768;21.590;2023-02-28T22:06:19;101347.91;;;-4.96;80.89
51528;BME280;37612;51.768;21.590;2023-02-28T22:10:20;101348.23;;;-5.07;81.32
51528;BME280;37612;51.768;21.590;2023-02-28T22:14:22;101349.23;;;-5.11;81.44
51528;BME280;37612;51.768;21.590;2023-02-28T22:18:24;101343.95;;;-5.10;81.48
51528;BME280;37612;51.768;21.590;2023-02-28T22:22:25;101341.19;;;-5.10;81.75
51528;BME280;37612;51.768;21.590;2023-02-28T22:26:26;101345.52;;;-5.13;82.05
51528;BME280;37612;51.768;21.590;2023-02-28T22:30:27;101345.90;;;-5.18;82.11
51528;BME280;37612;51.768;21.590;2023-02-28T22:34:28;101348.73;;;-5.18;82.08
51528;BME280;37612;51.768;21.590;2023-02-28T22:38:30;101353.00;;;-5.15;81.99
51528;BME280;37612;51.768;21.590;2023-02-28T22:42:35;101358.14;;;-5.14;82.08
51528;BME280;37612;51.768;21.590;2023-02-28T22:46:36;101363.83;;;-5.18;82.05
51528;BME280;37612;51.768;21.590;2023-02-28T22:50:38;101364.84;;;-5.25;82.46
51528;BME280;37612;51.768;21.590;2023-02-28T22:54:39;101360.44;;;-5.31;82.73
51528;BME280;37612;51.768;21.590;2023-02-28T22:58:41;101356.64;;;-5.36;82.69
51528;BME280;37612;51.768;21.590;2023-02-28T23:02:43;101352.82;;;-5.36;82.54
51528;BME280;37612;51.768;21.590;2023-02-28T23:06:44;101353.38;;;-5.36;82.74
51528;BME280;37612;51.768;21.590;2023-02-28T23:10:47;101346.11;;;-5.42;82.48
51528;BME280;37612;51.768;21.590;2023-02-28T23:14:52;101342.05;;;-5.50;83.08
51528;BME280;37612;51.768;21.590;2023-02-28T23:18:54;101339.80;;;-5.57;82.97